East Brady, Pennsylvania
Current Conditions -  °F | °C
As of 7:15 AM on Sunday 25 Jan 2015 (Local Time) from KBTP Reporting Station
Overcast Overcast  
Wind Chill: 29°   Ceiling: 600
Heat Index: 34°   Visibility: 3mi
Dew Point: 30°   Wind: 6mph
Humidity: 87%   Direction: 220°SW
Pressure: 29.75"   Gusts: NA
Location:  40.99°N, 79.61°W
Report Text: KBTP 251215Z AUTO 22005KT 3SM OVC006 01/M01 A2975 RMK AO1
Loading
Personal Weather Stations






























Interactive Weather Map New forecast layout! Learn more

10-Day Weather Forecast

Advertisements
Track Severe Weather on mobile